Time,TemperatureF,DewpointF,PressureIn,WindDirection,WindDirectionDegrees,WindSpeedMPH,WindSpeedGustMPH,Humidity,HourlyPrecipIn,Conditions,Clouds,dailyrainin,SolarRadiationWatts/m^2,SoftwareType,DateUTC
2013-02-17 00:00:00,29.7,27.9,29.94,WNW,287,0.0,3.0,93,0.00,,---,0.17,0.00,VWS V14.00,2013-02-17 05:00:00,
2013-02-17 00:05:00,29.5,27.7,29.94,WNW,287,1.0,3.0,93,0.00,,---,0.00,0.00,VWS V14.00,2013-02-17 05:05:00,
2013-02-17 00:10:00,29.5,27.7,29.94,WNW,287,0.0,3.0,93,0.00,,---,0.00,0.00,VWS V14.00,2013-02-17 05:10:00,
2013-02-17 00:15:00,29.4,27.4,29.94,WNW,287,0.0,3.0,92,0.00,,---,0.00,0.00,VWS V14.00,2013-02-17 05:15:00,
2013-02-17 00:20:00,29.4,27.4,29.94,WNW,287,0.0,3.0,92,0.00,,---,0.00,0.00,VWS V14.00,2013-02-17 05:20:00,
2013-02-17 00:25:00,29.4,27.4,29.95,WNW,287,1.0,3.0,92,0.00,,---,0.00,0.00,VWS V14.00,2013-02-17 05:25:00,
2013-02-17 00:30:00,29.3,27.0,29.95,NW,324,0.0,3.0,91,0.00,,---,0.00,0.00,VWS V14.00,2013-02-17 05:30:00,
2013-02-17 00:35:00,29.3,27.0,29.95,NW,324,1.0,2.0,91,0.00,,---,0.00,0.00,VWS V14.00,2013-02-17 05:35:00,
2013-02-17 00:40:00,29.1,26.5,29.95,NW,324,2.0,3.0,90,0.00,,---,0.00,0.00,VWS V14.00,2013-02-17 05:40:00,
2013-02-17 00:45:00,29.1,26.5,29.95,NW,324,0.0,3.0,90,0.00,,---,0.00,0.00,VWS V14.00,2013-02-17 05:45:00,
2013-02-17 00:50:00,29.0,26.2,29.95,WNW,298,2.0,3.0,89,0.00,,---,0.00,0.00,VWS V14.00,2013-02-17 05:50:00,
2013-02-17 00:55:00,29.0,25.9,29.96,WNW,298,1.0,3.0,88,0.00,,---,0.00,0.00,VWS V14.00,2013-02-17 05:55:00,
2013-02-17 01:00:00,29.1,26.0,29.96,WNW,298,0.0,3.0,88,0.00,,---,0.00,0.00,VWS V14.00,2013-02-17 06:00:00,
2013-02-17 01:05:00,29.0,25.6,29.96,WNW,298,0.0,3.0,87,0.00,,---,0.00,0.00,VWS V14.00,2013-02-17 06:05:00,
2013-02-17 01:10:00,29.0,25.4,29.96,WNW,298,0.0,3.0,86,0.00,,---,0.00,0.00,VWS V14.00,2013-02-17 06:10:00,
2013-02-17 01:15:00,29.0,25.4,29.97,WNW,298,0.0,3.0,86,0.00,,---,0.00,0.00,VWS V14.00,2013-02-17 06:15:00,
2013-02-17 01:20:00,29.0,25.1,29.97,WNW,298,0.0,3.0,85,0.00,,---,0.00,0.00,VWS V14.00,2013-02-17 06:20:00,
2013-02-17 01:25:00,29.0,24.8,29.97,WNW,298,0.0,3.0,84,0.00,,---,0.00,0.00,VWS V14.00,2013-02-17 06:25:00,
2013-02-17 01:30:00,29.0,24.5,29.97,WNW,298,0.0,3.0,83,0.00,,---,0.00,0.00,VWS V14.00,2013-02-17 06:30:00,
2013-02-17 01:35:00,29.0,24.5,29.97,WNW,298,0.0,2.0,83,0.00,,---,0.00,0.00,VWS V14.00,2013-02-17 06:35:00,
2013-02-17 01:40:00,28.8,24.0,29.97,WNW,298,0.0,2.0,82,0.00,,---,0.00,0.00,VWS V14.00,2013-02-17 06:40:00,
2013-02-17 01:45:00,28.8,24.0,29.97,WNW,298,0.0,2.0,82,0.00,,---,0.00,0.00,VWS V14.00,2013-02-17 06:45:00,
2013-02-17 01:50:00,28.8,23.7,29.97,WNW,298,0.0,2.0,81,0.00,,---,0.00,0.00,VWS V14.00,2013-02-17 06:50:00,
2013-02-17 01:55:00,28.7,23.6,29.97,WNW,298,0.0,2.0,81,0.00,,---,0.00,0.00,VWS V14.00,2013-02-17 06:55:00,
2013-02-17 02:00:00,28.7,23.6,29.97,WNW,298,0.0,2.0,81,0.00,,---,0.00,0.00,VWS V14.00,2013-02-17 07:00:00,
2013-02-17 02:05:00,28.5,23.4,29.97,WNW,298,0.0,1.0,81,0.00,,---,0.00,0.00,VWS V14.00,2013-02-17 07:05:00,
2013-02-17 02:10:00,28.4,23.3,29.98,WNW,298,0.0,1.0,81,0.00,,---,0.00,0.00,VWS V14.00,2013-02-17 07:10:00,
2013-02-17 02:15:00,28.2,23.1,29.98,WNW,298,0.0,2.0,81,0.00,,---,0.00,0.00,VWS V14.00,2013-02-17 07:15:00,
2013-02-17 02:20:00,28.2,23.1,29.98,WNW,298,0.0,2.0,81,0.00,,---,0.00,0.00,VWS V14.00,2013-02-17 07:20:00,
2013-02-17 02:25:00,28.1,23.0,29.98,WNW,298,0.0,2.0,81,0.00,,---,0.00,0.00,VWS V14.00,2013-02-17 07:25:00,
2013-02-17 02:30:00,27.9,22.8,29.98,WNW,298,0.0,2.0,81,0.00,,---,0.00,0.00,VWS V14.00,2013-02-17 07:30:00,
2013-02-17 02:35:00,27.8,22.7,29.98,WNW,298,0.0,2.0,81,0.00,,---,0.00,0.00,VWS V14.00,2013-02-17 07:35:00,
2013-02-17 02:40:00,27.8,22.7,29.98,WNW,298,0.0,2.0,81,0.00,,---,0.00,0.00,VWS V14.00,2013-02-17 07:40:00,
2013-02-17 02:45:00,27.6,22.5,29.98,WNW,298,0.0,2.0,81,0.00,,---,0.00,0.00,VWS V14.00,2013-02-17 07:45:00,
2013-02-17 02:50:00,27.5,22.5,29.98,WNW,298,0.0,2.0,81,0.00,,---,0.00,0.00,VWS V14.00,2013-02-17 07:50:00,
2013-02-17 02:55:00,27.3,22.2,29.98,WNW,298,0.0,2.0,81,0.00,,---,0.00,0.00,VWS V14.00,2013-02-17 07:55:00,
2013-02-17 03:00:00,27.3,22.2,29.98,WNW,298,0.0,2.0,81,0.00,,---,0.00,0.00,VWS V14.00,2013-02-17 08:00:00,
2013-02-17 03:05:00,27.2,22.1,29.98,WNW,298,0.0,2.0,81,0.00,,---,0.00,0.00,VWS V14.00,2013-02-17 08:05:00,
2013-02-17 03:10:00,27.2,22.4,29.98,WNW,298,0.0,2.0,82,0.00,,---,0.00,0.00,VWS V14.00,2013-02-17 08:10:00,
2013-02-17 03:15:00,27.0,22.0,29.98,WNW,298,0.0,2.0,81,0.00,,---,0.00,0.00,VWS V14.00,2013-02-17 08:15:00,
2013-02-17 03:20:00,26.9,21.9,29.98,WNW,298,0.0,2.0,81,0.00,,---,0.00,0.00,VWS V14.00,2013-02-17 08:20:00,
2013-02-17 03:25:00,26.7,21.7,29.99,WNW,298,0.0,2.0,81,0.00,,---,0.00,0.00,VWS V14.00,2013-02-17 08:25:00,
2013-02-17 03:30:00,26.7,21.7,29.99,WNW,298,1.0,2.0,81,0.00,,---,0.00,0.00,VWS V14.00,2013-02-17 08:30:00,
2013-02-17 03:35:00,26.6,21.6,29.99,WNW,298,0.0,2.0,81,0.00,,---,0.00,0.00,VWS V14.00,2013-02-17 08:35:00,
2013-02-17 03:40:00,26.4,21.4,29.99,WNW,298,1.0,2.0,81,0.00,,---,0.00,0.00,VWS V14.00,2013-02-17 08:40:00,
2013-02-17 03:45:00,26.4,21.4,29.99,WNW,298,0.0,2.0,81,0.00,,---,0.00,0.00,VWS V14.00,2013-02-17 08:45:00,
2013-02-17 03:50:00,26.4,21.4,29.99,WNW,298,0.0,2.0,81,0.00,,---,0.00,0.00,VWS V14.00,2013-02-17 08:50:00,
2013-02-17 03:55:00,26.3,21.3,29.99,WNW,298,0.0,2.0,81,0.00,,---,0.00,0.00,VWS V14.00,2013-02-17 08:55:00,
2013-02-17 04:00:00,26.3,21.0,29.99,WNW,298,0.0,2.0,80,0.00,,---,0.00,0.00,VWS V14.00,2013-02-17 09:00:00,
2013-02-17 04:05:00,26.3,21.0,30.00,WNW,298,0.0,1.0,80,0.00,,---,0.00,0.00,VWS V14.00,2013-02-17 09:05:00,
2013-02-17 04:10:00,26.1,20.8,30.00,WNW,298,0.0,2.0,80,0.00,,---,0.00,0.00,VWS V14.00,2013-02-17 09:10:00,
2013-02-17 04:15:00,26.1,20.8,30.00,WNW,298,0.0,2.0,80,0.00,,---,0.00,0.00,VWS V14.00,2013-02-17 09:15:00,
2013-02-17 04:20:00,26.0,20.7,30.00,WNW,298,1.0,2.0,80,0.00,,---,0.00,0.00,VWS V14.00,2013-02-17 09:20:00,
2013-02-17 04:25:00,26.0,20.7,30.00,WNW,298,0.0,2.0,80,0.00,,---,0.00,0.00,VWS V14.00,2013-02-17 09:25:00,
2013-02-17 04:30:00,25.8,20.5,30.01,WNW,298,0.0,2.0,80,0.00,,---,0.00,0.00,VWS V14.00,2013-02-17 09:30:00,
2013-02-17 04:35:00,25.8,20.5,30.01,WNW,298,0.0,0.0,80,0.00,,---,0.00,0.00,VWS V14.00,2013-02-17 09:35:00,
2013-02-17 04:40:00,25.8,20.5,30.01,WNW,298,0.0,1.0,80,0.00,,---,0.00,0.00,VWS V14.00,2013-02-17 09:40:00,
2013-02-17 04:45:00,25.7,20.4,30.02,WNW,298,0.0,1.0,80,0.00,,---,0.00,0.00,VWS V14.00,2013-02-17 09:45:00,
2013-02-17 04:50:00,25.6,20.6,30.02,WNW,298,0.0,1.0,81,0.00,,---,0.00,0.00,VWS V14.00,2013-02-17 09:50:00,
2013-02-17 04:55:00,25.4,20.4,30.02,WNW,298,0.0,2.0,81,0.00,,---,0.00,0.00,VWS V14.00,2013-02-17 09:55:00,
2013-02-17 05:00:00,25.4,20.1,30.02,WNW,298,0.0,2.0,80,0.00,,---,0.00,0.00,VWS V14.00,2013-02-17 10:00:00,
2013-02-17 05:05:00,25.3,20.0,30.02,WNW,298,0.0,3.0,80,0.00,,---,0.00,0.00,VWS V14.00,2013-02-17 10:05:00,
2013-02-17 05:10:00,25.4,20.1,30.03,WNW,298,0.0,3.0,80,0.00,,---,0.00,0.00,VWS V14.00,2013-02-17 10:10:00,
2013-02-17 05:15:00,25.4,20.1,30.03,WNW,298,0.0,3.0,80,0.00,,---,0.00,0.00,VWS V14.00,2013-02-17 10:15:00,
2013-02-17 05:20:00,25.4,19.8,30.03,WNW,298,0.0,3.0,79,0.00,,---,0.00,0.00,VWS V14.00,2013-02-17 10:20:00,
2013-02-17 05:25:00,25.4,19.8,30.03,WNW,298,0.0,3.0,79,0.00,,---,0.00,0.00,VWS V14.00,2013-02-17 10:25:00,
2013-02-17 05:30:00,25.3,19.7,30.03,WNW,298,0.0,3.0,79,0.00,,---,0.00,0.00,VWS V14.00,2013-02-17 10:30:00,
2013-02-17 05:35:00,25.3,19.7,30.04,WNW,298,0.0,1.0,79,0.00,,---,0.00,0.00,VWS V14.00,2013-02-17 10:35:00,
2013-02-17 05:40:00,25.1,19.5,30.04,WNW,298,0.0,2.0,79,0.00,,---,0.00,0.00,VWS V14.00,2013-02-17 10:40:00,
2013-02-17 05:45:00,25.1,19.5,30.04,WNW,298,1.0,2.0,79,0.00,,---,0.00,0.00,VWS V14.00,2013-02-17 10:45:00,
2013-02-17 05:50:00,25.0,19.1,30.04,WNW,298,1.0,2.0,78,0.00,,---,0.00,0.00,VWS V14.00,2013-02-17 10:50:00,
2013-02-17 05:55:00,24.8,18.9,30.04,WNW,298,0.0,2.0,78,0.00,,---,0.00,0.00,VWS V14.00,2013-02-17 10:55:00,
2013-02-17 06:00:00,24.8,18.9,30.04,WNW,298,0.0,2.0,78,0.00,,---,0.00,0.00,VWS V14.00,2013-02-17 11:00:00,
2013-02-17 06:05:00,24.8,18.9,30.05,WNW,298,1.0,1.0,78,0.00,,---,0.00,0.00,VWS V14.00,2013-02-17 11:05:00,
2013-02-17 06:10:00,24.7,18.8,30.05,WNW,298,1.0,2.0,78,0.00,,---,0.00,0.00,VWS V14.00,2013-02-17 11:10:00,
2013-02-17 06:15:00,24.7,18.5,30.05,WNW,298,1.0,2.0,77,0.00,,---,0.00,0.00,VWS V14.00,2013-02-17 11:15:00,
2013-02-17 06:20:00,24.7,18.5,30.05,WNW,298,0.0,2.0,77,0.00,,---,0.00,0.00,VWS V14.00,2013-02-17 11:20:00,
2013-02-17 06:25:00,24.5,18.3,30.06,WNW,298,0.0,2.0,77,0.00,,---,0.00,0.00,VWS V14.00,2013-02-17 11:25:00,
2013-02-17 06:30:00,24.5,18.3,30.06,WNW,298,0.0,2.0,77,0.00,,---,0.00,0.00,VWS V14.00,2013-02-17 11:30:00,
2013-02-17 06:35:00,24.4,18.2,30.06,WNW,298,1.0,1.0,77,0.00,,---,0.00,0.00,VWS V14.00,2013-02-17 11:35:00,
2013-02-17 06:40:00,24.2,18.0,30.06,WNW,298,0.0,1.0,77,0.00,,---,0.00,0.00,VWS V14.00,2013-02-17 11:40:00,
2013-02-17 06:45:00,24.2,18.0,30.06,WNW,298,0.0,1.0,77,0.00,,---,0.00,0.00,VWS V14.00,2013-02-17 11:45:00,
2013-02-17 06:50:00,24.1,18.0,30.07,WNW,298,0.0,1.0,77,0.00,,---,0.00,0.00,VWS V14.00,2013-02-17 11:50:00,
2013-02-17 06:55:00,24.1,18.2,30.07,WNW,298,0.0,1.0,78,0.00,,---,0.00,0.00,VWS V14.00,2013-02-17 11:55:00,
2013-02-17 07:00:00,23.9,18.0,30.07,WNW,298,0.0,1.0,78,0.00,,---,0.00,0.00,VWS V14.00,2013-02-17 12:00:00,
2013-02-17 07:05:00,23.8,18.0,30.07,WNW,298,0.0,2.0,78,0.00,,---,0.00,0.00,VWS V14.00,2013-02-17 12:05:00,
2013-02-17 07:10:00,23.8,18.0,30.08,WNW,298,0.0,2.0,78,0.00,,---,0.00,0.00,VWS V14.00,2013-02-17 12:10:00,
2013-02-17 07:15:00,23.6,17.8,30.08,WNW,298,1.0,2.0,78,0.00,,---,0.00,0.00,VWS V14.00,2013-02-17 12:15:00,
2013-02-17 07:20:00,23.6,17.8,30.08,WNW,298,0.0,2.0,78,0.00,,---,0.00,5.00,VWS V14.00,2013-02-17 12:20:00,
2013-02-17 07:25:00,23.6,17.8,30.08,WNW,298,0.0,2.0,78,0.00,,---,0.00,7.00,VWS V14.00,2013-02-17 12:25:00,
2013-02-17 07:30:00,23.6,17.5,30.08,WNW,298,0.0,2.0,77,0.00,,---,0.00,9.00,VWS V14.00,2013-02-17 12:30:00,
2013-02-17 07:35:00,23.6,17.2,30.08,WNW,298,0.0,2.0,76,0.00,,---,0.00,11.00,VWS V14.00,2013-02-17 12:35:00,
2013-02-17 07:40:00,23.8,17.4,30.08,WNW,298,0.0,2.0,76,0.00,,---,0.00,11.00,VWS V14.00,2013-02-17 12:40:00,
2013-02-17 07:45:00,23.9,17.1,30.08,WNW,298,1.0,3.0,75,0.00,,---,0.00,14.00,VWS V14.00,2013-02-17 12:45:00,
2013-02-17 07:50:00,24.1,17.0,30.08,WNW,298,2.0,3.0,74,0.00,,---,0.00,18.00,VWS V14.00,2013-02-17 12:50:00,
2013-02-17 07:55:00,24.2,17.4,30.09,WNW,298,2.0,3.0,75,0.00,,---,0.00,21.00,VWS V14.00,2013-02-17 12:55:00,
2013-02-17 08:00:00,24.4,17.6,30.09,WNW,298,1.0,3.0,75,0.00,,---,0.00,21.00,VWS V14.00,2013-02-17 13:00:00,
2013-02-17 08:05:00,24.7,17.3,30.10,WNW,298,0.0,3.0,73,0.00,,---,0.00,86.00,VWS V14.00,2013-02-17 13:05:00,
2013-02-17 08:10:00,25.4,16.7,30.10,WNW,298,1.0,4.0,69,0.00,,---,0.00,37.00,VWS V14.00,2013-02-17 13:10:00,
2013-02-17 08:15:00,26.0,16.6,30.10,WNW,299,0.0,5.0,67,0.00,,---,0.00,30.00,VWS V14.00,2013-02-17 13:15:00,
2013-02-17 08:20:00,26.3,16.5,30.10,WNW,290,2.0,5.0,66,0.00,,---,0.00,25.00,VWS V14.00,2013-02-17 13:20:00,
2013-02-17 08:25:00,26.6,17.1,30.11,WNW,299,2.0,5.0,67,0.00,,---,0.00,172.00,VWS V14.00,2013-02-17 13:25:00,
2013-02-17 08:30:00,27.0,17.5,30.11,WNW,301,3.0,5.0,67,0.00,,---,0.00,83.00,VWS V14.00,2013-02-17 13:30:00,
2013-02-17 08:35:00,27.2,16.6,30.11,WNW,300,2.0,3.0,64,0.00,,---,0.00,109.00,VWS V14.00,2013-02-17 13:35:00,
2013-02-17 08:40:00,27.5,15.8,30.11,NW,317,0.0,4.0,61,0.00,,---,0.00,46.00,VWS V14.00,2013-02-17 13:40:00,
2013-02-17 08:45:00,27.6,16.3,30.11,NW,319,2.0,5.0,62,0.00,,---,0.00,32.00,VWS V14.00,2013-02-17 13:45:00,
2013-02-17 08:50:00,27.9,15.8,30.11,NNW,330,1.0,6.0,60,0.00,,---,0.00,84.00,VWS V14.00,2013-02-17 13:50:00,
2013-02-17 08:55:00,28.2,16.1,30.12,NW,323,1.0,6.0,60,0.00,,---,0.00,32.00,VWS V14.00,2013-02-17 13:55:00,
2013-02-17 09:00:00,28.5,16.8,30.12,West,279,3.0,6.0,61,0.00,,---,0.00,63.00,VWS V14.00,2013-02-17 14:00:00,
2013-02-17 09:05:00,28.8,16.3,30.12,West,279,3.0,6.0,59,0.00,,---,0.00,70.00,VWS V14.00,2013-02-17 14:05:00,
2013-02-17 09:10:00,29.0,16.9,30.12,WSW,244,0.0,6.0,60,0.00,,---,0.00,111.00,VWS V14.00,2013-02-17 14:10:00,
2013-02-17 09:15:00,29.0,16.1,30.12,WNW,296,0.0,8.0,58,0.00,,---,0.00,74.00,VWS V14.00,2013-02-17 14:15:00,
2013-02-17 09:20:00,29.5,17.3,30.12,WNW,290,0.0,8.0,60,0.00,,---,0.00,339.00,VWS V14.00,2013-02-17 14:20:00,
2013-02-17 09:25:00,30.0,15.8,30.12,WNW,294,4.0,8.0,55,0.00,,---,0.00,425.00,VWS V14.00,2013-02-17 14:25:00,
2013-02-17 09:30:00,30.3,16.5,30.12,WNW,294,4.0,8.0,56,0.00,,---,0.00,366.00,VWS V14.00,2013-02-17 14:30:00,
2013-02-17 09:35:00,30.4,16.2,30.12,NNW,327,0.0,6.0,55,0.00,,---,0.00,406.00,VWS V14.00,2013-02-17 14:35:00,
2013-02-17 09:40:00,30.4,15.3,30.12,WNW,286,4.0,11.0,53,0.00,,---,0.00,415.00,VWS V14.00,2013-02-17 14:40:00,
2013-02-17 09:45:00,30.1,12.8,30.12,WNW,289,4.0,11.0,48,0.00,,---,0.00,418.00,VWS V14.00,2013-02-17 14:45:00,
2013-02-17 09:50:00,30.3,15.2,30.12,NW,315,6.0,12.0,53,0.00,,---,0.00,431.00,VWS V14.00,2013-02-17 14:50:00,
2013-02-17 09:55:00,30.3,13.4,30.13,WNW,292,4.0,12.0,49,0.00,,---,0.00,448.00,VWS V14.00,2013-02-17 14:55:00,
2013-02-17 10:00:00,30.6,13.3,30.13,NW,305,2.0,12.0,48,0.01,,---,0.01,403.00,VWS V14.00,2013-02-17 15:00:00,
2013-02-17 10:05:00,30.4,11.6,30.14,NW,309,6.0,8.0,45,0.01,,---,0.01,619.00,VWS V14.00,2013-02-17 15:05:00,
2013-02-17 10:10:00,30.9,12.1,30.14,WNW,300,6.0,8.0,45,0.01,,---,0.01,628.00,VWS V14.00,2013-02-17 15:10:00,
2013-02-17 10:15:00,30.7,10.3,30.14,SSW,193,1.0,8.0,42,0.01,,---,0.01,635.00,VWS V14.00,2013-02-17 15:15:00,
2013-02-17 10:20:00,30.7,11.4,30.14,WNW,295,0.0,8.0,44,0.01,,---,0.01,645.00,VWS V14.00,2013-02-17 15:20:00,
2013-02-17 10:25:00,31.3,9.8,30.14,WNW,302,0.0,8.0,40,0.02,,---,0.02,663.00,VWS V14.00,2013-02-17 15:25:00,
2013-02-17 10:30:00,31.2,8.6,30.14,WNW,290,2.0,8.0,38,0.02,,---,0.02,679.00,VWS V14.00,2013-02-17 15:30:00,
2013-02-17 10:35:00,30.9,10.5,30.14,WNW,284,0.0,8.0,42,0.02,,---,0.02,686.00,VWS V14.00,2013-02-17 15:35:00,
2013-02-17 10:40:00,31.0,9.5,30.14,WNW,286,1.0,8.0,40,0.02,,---,0.02,698.00,VWS V14.00,2013-02-17 15:40:00,
2013-02-17 10:45:00,31.3,8.6,30.14,WNW,295,5.0,8.0,38,0.02,,---,0.02,701.00,VWS V14.00,2013-02-17 15:45:00,
2013-02-17 10:50:00,31.8,10.8,30.14,WNW,300,5.0,8.0,41,0.02,,---,0.02,710.00,VWS V14.00,2013-02-17 15:50:00,
2013-02-17 10:55:00,31.5,10.0,30.14,NNE,30,1.0,8.0,40,0.02,,---,0.02,714.00,VWS V14.00,2013-02-17 15:55:00,
2013-02-17 11:00:00,32.2,10.6,30.15,NW,304,2.0,8.0,40,0.02,,---,0.02,729.00,VWS V14.00,2013-02-17 16:00:00,
2013-02-17 11:05:00,32.7,12.2,30.14,WNW,287,0.0,5.0,42,0.02,,---,0.03,664.00,VWS V14.00,2013-02-17 16:05:00,
2013-02-17 11:10:00,32.4,10.8,30.14,WNW,288,5.0,7.0,40,0.02,,---,0.03,666.00,VWS V14.00,2013-02-17 16:10:00,
2013-02-17 11:15:00,32.2,10.6,30.14,NNW,336,4.0,7.0,40,0.02,,---,0.03,673.00,VWS V14.00,2013-02-17 16:15:00,
2013-02-17 11:20:00,32.2,8.3,30.14,NW,309,1.0,9.0,36,0.02,,---,0.03,675.00,VWS V14.00,2013-02-17 16:20:00,
2013-02-17 11:25:00,32.5,7.9,30.14,NW,323,4.0,9.0,35,0.03,,---,0.04,693.00,VWS V14.00,2013-02-17 16:25:00,
2013-02-17 11:30:00,32.7,11.1,30.14,NNW,338,5.0,9.0,40,0.03,,---,0.04,693.00,VWS V14.00,2013-02-17 16:30:00,
2013-02-17 11:35:00,32.8,10.6,30.14,NNW,338,4.0,10.0,39,0.02,,---,0.04,698.00,VWS V14.00,2013-02-17 16:35:00,
2013-02-17 11:40:00,33.2,10.9,30.14,West,273,5.0,10.0,39,0.02,,---,0.04,714.00,VWS V14.00,2013-02-17 16:40:00,
2013-02-17 11:45:00,32.9,11.2,30.14,SSW,211,1.0,10.0,40,0.02,,---,0.04,721.00,VWS V14.00,2013-02-17 16:45:00,
2013-02-17 11:50:00,33.1,9.1,30.14,West,281,0.0,10.0,36,0.02,,---,0.04,749.00,VWS V14.00,2013-02-17 16:50:00,
2013-02-17 11:55:00,33.1,9.7,30.14,NNW,331,5.0,10.0,37,0.03,,---,0.05,728.00,VWS V14.00,2013-02-17 16:55:00,
2013-02-17 12:00:00,33.5,10.6,30.14,NNW,333,3.0,10.0,38,0.03,,---,0.05,744.00,VWS V14.00,2013-02-17 17:00:00,
2013-02-17 12:05:00,34.0,12.2,30.14,NNW,348,3.0,13.0,40,0.03,,---,0.05,740.00,VWS V14.00,2013-02-17 17:05:00,
2013-02-17 12:10:00,34.3,11.4,30.13,NW,319,4.0,13.0,38,0.03,,---,0.05,756.00,VWS V14.00,2013-02-17 17:10:00,
2013-02-17 12:15:00,33.8,12.6,30.13,NNW,344,4.0,13.0,41,0.03,,---,0.05,737.00,VWS V14.00,2013-02-17 17:15:00,
2013-02-17 12:20:00,33.7,10.8,30.13,North,360,4.0,13.0,38,0.03,,---,0.05,123.00,VWS V14.00,2013-02-17 17:20:00,
2013-02-17 12:25:00,33.7,12.0,30.13,WNW,298,2.0,13.0,40,0.04,,---,0.06,745.00,VWS V14.00,2013-02-17 17:25:00,
2013-02-17 12:30:00,34.0,8.6,30.13,North,355,3.0,13.0,34,0.04,,---,0.06,747.00,VWS V14.00,2013-02-17 17:30:00,
2013-02-17 12:35:00,34.7,12.9,30.13,NNE,15,2.0,5.0,40,0.02,,---,0.06,756.00,VWS V14.00,2013-02-17 17:35:00,
2013-02-17 12:40:00,34.7,10.5,30.13,NNW,332,3.0,14.0,36,0.02,,---,0.06,784.00,VWS V14.00,2013-02-17 17:40:00,
2013-02-17 12:45:00,34.0,9.9,30.13,WNW,284,0.0,14.0,36,0.02,,---,0.06,784.00,VWS V14.00,2013-02-17 17:45:00,
2013-02-17 12:50:00,33.5,10.6,30.13,WNW,283,3.0,14.0,38,0.02,,---,0.06,146.00,VWS V14.00,2013-02-17 17:50:00,
2013-02-17 12:55:00,32.9,10.7,30.13,North,355,6.0,14.0,39,0.03,,---,0.07,97.00,VWS V14.00,2013-02-17 17:55:00,
2013-02-17 13:00:00,34.0,8.6,30.13,North,355,2.0,14.0,34,0.03,,---,0.07,761.00,VWS V14.00,2013-02-17 18:00:00,
2013-02-17 13:05:00,35.0,10.1,30.12,NW,309,2.0,8.0,35,0.02,,---,0.07,789.00,VWS V14.00,2013-02-17 18:05:00,
2013-02-17 13:10:00,35.2,10.9,30.12,WNW,299,1.0,8.0,36,0.02,,---,0.07,782.00,VWS V14.00,2013-02-17 18:10:00,
2013-02-17 13:15:00,35.0,10.8,30.12,WNW,296,1.0,8.0,36,0.02,,---,0.07,366.00,VWS V14.00,2013-02-17 18:15:00,
2013-02-17 13:20:00,35.3,13.4,30.13,NNE,29,4.0,10.0,40,0.02,,---,0.07,146.00,VWS V14.00,2013-02-17 18:20:00,
2013-02-17 13:25:00,35.5,12.4,30.12,NW,312,3.0,10.0,38,0.02,,---,0.07,679.00,VWS V14.00,2013-02-17 18:25:00,
2013-02-17 13:30:00,36.2,11.8,30.12,NNE,16,1.0,10.0,36,0.03,,---,0.08,772.00,VWS V14.00,2013-02-17 18:30:00,
2013-02-17 13:35:00,35.6,15.3,30.12,NNW,328,1.0,7.0,43,0.02,,---,0.08,88.00,VWS V14.00,2013-02-17 18:35:00,
2013-02-17 13:40:00,35.9,11.6,30.12,WNW,298,2.0,7.0,36,0.02,,---,0.08,698.00,VWS V14.00,2013-02-17 18:40:00,
2013-02-17 13:45:00,35.9,10.9,30.12,WNW,292,2.0,7.0,35,0.02,,---,0.08,171.00,VWS V14.00,2013-02-17 18:45:00,
2013-02-17 13:50:00,36.0,12.3,30.12,NW,321,1.0,7.0,37,0.02,,---,0.08,686.00,VWS V14.00,2013-02-17 18:50:00,
2013-02-17 13:55:00,36.6,11.6,30.11,NNW,348,1.0,9.0,35,0.02,,---,0.08,701.00,VWS V14.00,2013-02-17 18:55:00,
2013-02-17 14:00:00,36.5,12.7,30.11,NNE,26,0.0,9.0,37,0.02,,---,0.08,680.00,VWS V14.00,2013-02-17 19:00:00,
2013-02-17 14:05:00,37.5,16.0,30.11,SW,236,0.0,7.0,41,0.02,,---,0.09,657.00,VWS V14.00,2013-02-17 19:05:00,
2013-02-17 14:10:00,37.9,15.2,30.11,NW,306,3.0,7.0,39,0.02,,---,0.09,650.00,VWS V14.00,2013-02-17 19:10:00,
2013-02-17 14:15:00,37.5,8.9,30.11,NW,306,3.0,8.0,30,0.02,,---,0.09,650.00,VWS V14.00,2013-02-17 19:15:00,
2013-02-17 14:20:00,38.0,12.1,30.11,NW,306,3.0,8.0,34,0.03,,---,0.10,631.00,VWS V14.00,2013-02-17 19:20:00,
2013-02-17 14:25:00,38.5,13.9,30.11,WNW,284,0.0,8.0,36,0.03,,---,0.10,628.00,VWS V14.00,2013-02-17 19:25:00,
2013-02-17 14:30:00,38.6,9.9,30.11,WNW,296,0.0,8.0,30,0.03,,---,0.10,610.00,VWS V14.00,2013-02-17 19:30:00,
2013-02-17 14:35:00,38.6,11.3,30.11,South,182,0.0,6.0,32,0.02,,---,0.10,603.00,VWS V14.00,2013-02-17 19:35:00,
2013-02-17 14:40:00,38.6,14.0,30.11,WNW,301,2.0,7.0,36,0.02,,---,0.10,584.00,VWS V14.00,2013-02-17 19:40:00,
2013-02-17 14:45:00,38.2,8.0,30.10,WNW,294,2.0,7.0,28,0.03,,---,0.11,575.00,VWS V14.00,2013-02-17 19:45:00,
2013-02-17 14:50:00,37.9,8.5,30.11,WSW,248,3.0,10.0,29,0.03,,---,0.11,557.00,VWS V14.00,2013-02-17 19:50:00,
2013-02-17 14:55:00,38.3,12.4,30.11,WNW,301,1.0,10.0,34,0.03,,---,0.11,547.00,VWS V14.00,2013-02-17 19:55:00,
2013-02-17 15:00:00,39.1,10.3,30.10,NNW,331,3.0,10.0,30,0.04,,---,0.12,540.00,VWS V14.00,2013-02-17 20:00:00,
2013-02-17 15:05:00,38.9,11.6,30.10,NW,319,2.0,6.0,32,0.04,,---,0.12,526.00,VWS V14.00,2013-02-17 20:05:00,
2013-02-17 15:10:00,38.9,8.6,30.11,WNW,299,5.0,8.0,28,0.04,,---,0.12,512.00,VWS V14.00,2013-02-17 20:10:00,
2013-02-17 15:15:00,38.6,9.1,30.10,WNW,284,2.0,8.0,29,0.04,,---,0.12,497.00,VWS V14.00,2013-02-17 20:15:00,
2013-02-17 15:20:00,38.8,10.0,30.11,WNW,294,5.0,10.0,30,0.04,,---,0.12,483.00,VWS V14.00,2013-02-17 20:20:00,
2013-02-17 15:25:00,38.5,7.4,30.11,NW,317,2.0,10.0,27,0.04,,---,0.12,424.00,VWS V14.00,2013-02-17 20:25:00,
2013-02-17 15:30:00,38.8,9.3,30.11,WNW,301,1.0,10.0,29,0.05,,---,0.13,452.00,VWS V14.00,2013-02-17 20:30:00,
2013-02-17 15:35:00,38.9,10.1,30.11,SW,224,4.0,6.0,30,0.03,,---,0.13,425.00,VWS V14.00,2013-02-17 20:35:00,
2013-02-17 15:40:00,38.8,7.7,30.11,West,266,2.0,7.0,27,0.03,,---,0.13,355.00,VWS V14.00,2013-02-17 20:40:00,
2013-02-17 15:45:00,38.8,8.5,30.11,NW,317,3.0,9.0,28,0.03,,---,0.13,329.00,VWS V14.00,2013-02-17 20:45:00,
2013-02-17 15:50:00,38.5,6.6,30.11,WNW,296,4.0,9.0,26,0.03,,---,0.13,244.00,VWS V14.00,2013-02-17 20:50:00,
2013-02-17 15:55:00,38.5,8.2,30.11,NNW,333,1.0,9.0,28,0.03,,---,0.13,223.00,VWS V14.00,2013-02-17 20:55:00,
2013-02-17 16:00:00,38.6,7.5,30.11,WNW,293,0.0,9.0,27,0.03,,---,0.13,76.00,VWS V14.00,2013-02-17 21:00:00,
2013-02-17 16:05:00,38.8,10.0,30.12,NW,306,3.0,6.0,30,0.02,,---,0.14,63.00,VWS V14.00,2013-02-17 21:05:00,
2013-02-17 16:10:00,38.6,10.6,30.12,WSW,254,3.0,6.0,31,0.02,,---,0.14,58.00,VWS V14.00,2013-02-17 21:10:00,
2013-02-17 16:15:00,38.6,7.5,30.12,WNW,290,1.0,6.0,27,0.02,,---,0.14,91.00,VWS V14.00,2013-02-17 21:15:00,
2013-02-17 16:20:00,38.5,9.8,30.12,NNW,340,4.0,6.0,30,0.02,,---,0.14,53.00,VWS V14.00,2013-02-17 21:20:00,
2013-02-17 16:25:00,38.5,9.0,30.13,WNW,286,0.0,6.0,29,0.02,,---,0.14,72.00,VWS V14.00,2013-02-17 21:25:00,
2013-02-17 16:30:00,38.3,7.3,30.12,NW,306,2.0,6.0,27,0.02,,---,0.14,151.00,VWS V14.00,2013-02-17 21:30:00,
2013-02-17 16:35:00,38.2,10.2,30.12,WNW,297,3.0,5.0,31,0.01,,---,0.14,93.00,VWS V14.00,2013-02-17 21:35:00,
2013-02-17 16:40:00,38.2,8.0,30.12,WNW,296,1.0,5.0,28,0.01,,---,0.14,153.00,VWS V14.00,2013-02-17 21:40:00,
2013-02-17 16:45:00,38.3,8.1,30.13,NE,44,0.0,5.0,28,0.01,,---,0.14,153.00,VWS V14.00,2013-02-17 21:45:00,
2013-02-17 16:50:00,38.2,9.5,30.13,NW,310,2.0,6.0,30,0.01,,---,0.14,33.00,VWS V14.00,2013-02-17 21:50:00,
2013-02-17 16:55:00,38.0,11.5,30.13,West,281,1.0,6.0,33,0.01,,---,0.14,40.00,VWS V14.00,2013-02-17 21:55:00,
2013-02-17 17:00:00,38.0,9.3,30.13,NW,323,0.0,6.0,30,0.01,,---,0.14,40.00,VWS V14.00,2013-02-17 22:00:00,
2013-02-17 17:05:00,38.0,11.5,30.13,NW,315,1.0,4.0,33,0.01,,---,0.14,25.00,VWS V14.00,2013-02-17 22:05:00,
2013-02-17 17:10:00,37.9,10.0,30.14,NW,309,0.0,4.0,31,0.01,,---,0.14,25.00,VWS V14.00,2013-02-17 22:10:00,
2013-02-17 17:15:00,37.9,14.6,30.14,WNW,299,0.0,4.0,38,0.01,,---,0.14,25.00,VWS V14.00,2013-02-17 22:15:00,
2013-02-17 17:20:00,37.6,9.0,30.14,WNW,298,1.0,4.0,30,0.01,,---,0.14,21.00,VWS V14.00,2013-02-17 22:20:00,
2013-02-17 17:25:00,37.5,9.6,30.14,WNW,298,3.0,4.0,31,0.01,,---,0.14,19.00,VWS V14.00,2013-02-17 22:25:00,
2013-02-17 17:30:00,37.3,11.5,30.15,WNW,298,0.0,4.0,34,0.01,,---,0.14,18.00,VWS V14.00,2013-02-17 22:30:00,
2013-02-17 17:35:00,37.2,12.1,30.15,WNW,298,1.0,2.0,35,0.00,,---,0.14,16.00,VWS V14.00,2013-02-17 22:35:00,
2013-02-17 17:40:00,37.0,13.2,30.15,WNW,283,0.0,3.0,37,0.00,,---,0.14,12.00,VWS V14.00,2013-02-17 22:40:00,
2013-02-17 17:45:00,36.9,13.1,30.15,WNW,283,0.0,3.0,37,0.00,,---,0.14,11.00,VWS V14.00,2013-02-17 22:45:00,
2013-02-17 17:50:00,36.8,14.2,30.16,WNW,283,0.0,3.0,39,0.00,,---,0.14,9.00,VWS V14.00,2013-02-17 22:50:00,
2013-02-17 17:55:00,36.5,10.8,30.16,WNW,283,0.0,3.0,34,0.00,,---,0.14,5.00,VWS V14.00,2013-02-17 22:55:00,
2013-02-17 18:00:00,36.3,14.3,30.16,WNW,283,0.0,3.0,40,0.00,,---,0.14,0.00,VWS V14.00,2013-02-17 23:00:00,
2013-02-17 18:05:00,36.2,13.6,30.16,WNW,283,0.0,0.0,39,0.00,,---,0.14,0.00,VWS V14.00,2013-02-17 23:05:00,
2013-02-17 18:10:00,35.9,13.4,30.16,WNW,283,0.0,0.0,39,0.00,,---,0.14,0.00,VWS V14.00,2013-02-17 23:10:00,
2013-02-17 18:15:00,35.6,12.5,30.17,WNW,283,0.0,0.0,38,0.00,,---,0.14,0.00,VWS V14.00,2013-02-17 23:15:00,
2013-02-17 18:20:00,35.3,12.8,30.17,WNW,283,0.0,0.0,39,0.00,,---,0.14,0.00,VWS V14.00,2013-02-17 23:20:00,
2013-02-17 18:25:00,34.9,12.5,30.17,WNW,283,0.0,0.0,39,0.00,,---,0.14,0.00,VWS V14.00,2013-02-17 23:25:00,
2013-02-17 18:30:00,34.6,13.3,30.17,WNW,283,0.0,0.0,41,0.00,,---,0.14,0.00,VWS V14.00,2013-02-17 23:30:00,
2013-02-17 18:35:00,34.3,12.5,30.17,WNW,283,0.0,0.0,40,0.00,,---,0.14,0.00,VWS V14.00,2013-02-17 23:35:00,
2013-02-17 18:40:00,34.1,12.9,30.18,WNW,283,0.0,0.0,41,0.00,,---,0.14,0.00,VWS V14.00,2013-02-17 23:40:00,
2013-02-17 18:45:00,34.0,12.8,30.18,WNW,283,0.0,0.0,41,0.00,,---,0.14,0.00,VWS V14.00,2013-02-17 23:45:00,
2013-02-17 18:50:00,33.7,12.0,30.18,WNW,283,0.0,0.0,40,0.00,,---,0.14,0.00,VWS V14.00,2013-02-17 23:50:00,
2013-02-17 18:55:00,33.4,11.7,30.18,WNW,283,0.0,0.0,40,0.00,,---,0.14,0.00,VWS V14.00,2013-02-17 23:55:00,
2013-02-17 19:00:00,33.2,11.5,30.18,WNW,283,0.0,0.0,40,0.00,,---,0.14,0.00,VWS V14.00,2013-02-18 00:00:00,
2013-02-17 19:05:00,32.9,11.8,30.19,WNW,283,0.0,0.0,41,0.00,,---,0.14,0.00,VWS V14.00,2013-02-18 00:05:00,
2013-02-17 19:10:00,32.7,11.6,30.19,WNW,283,0.0,1.0,41,0.00,,---,0.14,0.00,VWS V14.00,2013-02-18 00:10:00,
2013-02-17 19:15:00,32.4,12.4,30.19,WNW,283,0.0,1.0,43,0.00,,---,0.14,0.00,VWS V14.00,2013-02-18 00:15:00,
2013-02-17 19:20:00,32.2,12.2,30.20,WNW,283,0.0,1.0,43,0.00,,---,0.14,0.00,VWS V14.00,2013-02-18 00:20:00,
2013-02-17 19:25:00,32.1,11.6,30.20,WNW,283,0.0,1.0,42,0.00,,---,0.14,0.00,VWS V14.00,2013-02-18 00:25:00,
2013-02-17 19:30:00,31.9,11.4,30.20,WNW,283,0.0,1.0,42,0.00,,---,0.14,0.00,VWS V14.00,2013-02-18 00:30:00,
2013-02-17 19:35:00,31.8,12.4,30.20,WNW,283,0.0,0.0,44,0.00,,---,0.14,0.00,VWS V14.00,2013-02-18 00:35:00,
2013-02-17 19:40:00,31.6,12.7,30.20,WNW,283,0.0,0.0,45,0.00,,---,0.14,0.00,VWS V14.00,2013-02-18 00:40:00,
2013-02-17 19:45:00,31.5,13.1,30.21,WNW,283,0.0,0.0,46,0.00,,---,0.14,0.00,VWS V14.00,2013-02-18 00:45:00,
2013-02-17 19:50:00,31.3,11.9,30.21,WNW,283,0.0,0.0,44,0.00,,---,0.14,0.00,VWS V14.00,2013-02-18 00:50:00,
2013-02-17 19:55:00,31.2,12.4,30.21,WNW,283,0.0,0.0,45,0.00,,---,0.14,0.00,VWS V14.00,2013-02-18 00:55:00,
2013-02-17 20:00:00,31.0,12.7,30.21,WNW,283,0.0,0.0,46,0.00,,---,0.14,0.00,VWS V14.00,2013-02-18 01:00:00,
2013-02-17 20:05:00,30.9,12.1,30.22,WNW,283,0.0,0.0,45,0.00,,---,0.14,0.00,VWS V14.00,2013-02-18 01:05:00,
2013-02-17 20:10:00,30.7,11.4,30.22,WNW,283,0.0,0.0,44,0.00,,---,0.14,0.00,VWS V14.00,2013-02-18 01:10:00,
2013-02-17 20:15:00,30.6,12.8,30.22,WNW,283,0.0,0.0,47,0.00,,---,0.14,0.00,VWS V14.00,2013-02-18 01:15:00,
2013-02-17 20:20:00,30.3,11.0,30.22,WNW,283,0.0,0.0,44,0.00,,---,0.14,0.00,VWS V14.00,2013-02-18 01:20:00,
2013-02-17 20:25:00,30.3,12.0,30.23,WNW,283,0.0,0.0,46,0.00,,---,0.14,0.00,VWS V14.00,2013-02-18 01:25:00,
2013-02-17 20:30:00,30.1,11.8,30.23,WNW,283,0.0,0.0,46,0.00,,---,0.14,0.00,VWS V14.00,2013-02-18 01:30:00,
2013-02-17 20:35:00,30.0,12.2,30.23,WNW,283,0.0,0.0,47,0.00,,---,0.14,0.00,VWS V14.00,2013-02-18 01:35:00,
2013-02-17 20:40:00,30.0,11.2,30.24,WNW,283,0.0,0.0,45,0.00,,---,0.14,0.00,VWS V14.00,2013-02-18 01:40:00,
2013-02-17 20:45:00,29.8,12.0,30.24,WNW,283,0.0,0.0,47,0.00,,---,0.14,0.00,VWS V14.00,2013-02-18 01:45:00,
2013-02-17 20:50:00,29.8,11.6,30.24,WNW,283,0.0,0.0,46,0.00,,---,0.14,0.00,VWS V14.00,2013-02-18 01:50:00,
2013-02-17 20:55:00,29.7,11.9,30.24,WNW,283,0.0,0.0,47,0.00,,---,0.14,0.00,VWS V14.00,2013-02-18 01:55:00,
2013-02-17 21:00:00,29.7,11.5,30.24,WNW,283,0.0,0.0,46,0.00,,---,0.14,0.00,VWS V14.00,2013-02-18 02:00:00,
2013-02-17 21:05:00,29.5,11.8,30.24,WNW,283,0.0,0.0,47,0.00,,---,0.14,0.00,VWS V14.00,2013-02-18 02:05:00,
2013-02-17 21:10:00,29.4,13.1,30.25,WNW,283,0.0,0.0,50,0.00,,---,0.14,0.00,VWS V14.00,2013-02-18 02:10:00,
2013-02-17 21:15:00,29.4,13.5,30.25,WNW,283,0.0,0.0,51,0.00,,---,0.14,0.00,VWS V14.00,2013-02-18 02:15:00,
2013-02-17 21:20:00,29.3,12.5,30.25,WNW,283,0.0,0.0,49,0.00,,---,0.14,0.00,VWS V14.00,2013-02-18 02:20:00,
2013-02-17 21:25:00,29.1,12.3,30.25,WNW,283,0.0,0.0,49,0.00,,---,0.14,0.00,VWS V14.00,2013-02-18 02:25:00,
2013-02-17 21:30:00,29.1,13.2,30.25,WNW,283,0.0,0.0,51,0.00,,---,0.14,0.00,VWS V14.00,2013-02-18 02:30:00,
2013-02-17 21:35:00,29.1,14.1,30.26,WNW,283,0.0,0.0,53,0.00,,---,0.14,0.00,VWS V14.00,2013-02-18 02:35:00,
2013-02-17 21:40:00,29.0,13.1,30.25,WNW,283,0.0,0.0,51,0.00,,---,0.14,0.00,VWS V14.00,2013-02-18 02:40:00,
2013-02-17 21:45:00,29.0,12.2,30.26,WNW,283,0.0,0.0,49,0.00,,---,0.14,0.00,VWS V14.00,2013-02-18 02:45:00,
2013-02-17 21:50:00,28.8,12.5,30.26,WNW,283,0.0,0.0,50,0.00,,---,0.14,0.00,VWS V14.00,2013-02-18 02:50:00,
2013-02-17 21:55:00,28.8,12.5,30.26,WNW,283,0.0,0.0,50,0.00,,---,0.14,0.00,VWS V14.00,2013-02-18 02:55:00,
2013-02-17 22:00:00,28.8,12.5,30.26,WNW,283,0.0,0.0,50,0.00,,---,0.14,0.00,VWS V14.00,2013-02-18 03:00:00,
2013-02-17 22:05:00,28.8,12.5,30.27,WNW,283,0.0,0.0,50,0.00,,---,0.14,0.00,VWS V14.00,2013-02-18 03:05:00,
2013-02-17 22:10:00,28.7,12.0,30.27,WNW,283,0.0,0.0,49,0.00,,---,0.14,0.00,VWS V14.00,2013-02-18 03:10:00,
2013-02-17 22:15:00,28.7,12.0,30.27,WNW,283,0.0,0.0,49,0.00,,---,0.14,0.00,VWS V14.00,2013-02-18 03:15:00,
2013-02-17 22:20:00,28.7,12.4,30.27,WNW,283,0.0,0.0,50,0.00,,---,0.14,0.00,VWS V14.00,2013-02-18 03:20:00,
2013-02-17 22:25:00,28.7,13.3,30.27,WNW,283,0.0,0.0,52,0.00,,---,0.14,0.00,VWS V14.00,2013-02-18 03:25:00,
2013-02-17 22:30:00,28.5,14.0,30.27,WNW,283,0.0,0.0,54,0.00,,---,0.14,0.00,VWS V14.00,2013-02-18 03:30:00,
2013-02-17 22:35:00,28.4,15.9,30.28,WNW,283,0.0,0.0,59,0.00,,---,0.14,0.00,VWS V14.00,2013-02-18 03:35:00,
2013-02-17 22:40:00,28.2,16.9,30.28,WNW,283,0.0,0.0,62,0.00,,---,0.14,0.00,VWS V14.00,2013-02-18 03:40:00,
2013-02-17 22:45:00,28.1,16.8,30.28,WNW,283,0.0,0.0,62,0.00,,---,0.14,0.00,VWS V14.00,2013-02-18 03:45:00,
2013-02-17 22:50:00,27.8,16.5,30.28,WNW,283,0.0,0.0,62,0.00,,---,0.14,0.00,VWS V14.00,2013-02-18 03:50:00,
2013-02-17 22:55:00,27.6,16.3,30.29,WNW,283,0.0,0.0,62,0.00,,---,0.14,0.00,VWS V14.00,2013-02-18 03:55:00,
2013-02-17 23:00:00,27.3,16.0,30.29,WNW,283,0.0,0.0,62,0.00,,---,0.14,0.00,VWS V14.00,2013-02-18 04:00:00,
2013-02-17 23:05:00,27.2,16.3,30.29,WNW,283,0.0,0.0,63,0.00,,---,0.14,0.00,VWS V14.00,2013-02-18 04:05:00,
2013-02-17 23:10:00,27.0,16.1,30.29,WNW,283,0.0,0.0,63,0.00,,---,0.14,0.00,VWS V14.00,2013-02-18 04:10:00,
2013-02-17 23:15:00,26.9,16.0,30.29,WNW,283,0.0,0.0,63,0.00,,---,0.14,0.00,VWS V14.00,2013-02-18 04:15:00,
2013-02-17 23:20:00,26.7,15.1,30.29,WNW,283,0.0,0.0,61,0.00,,---,0.14,0.00,VWS V14.00,2013-02-18 04:20:00,
2013-02-17 23:25:00,26.6,15.0,30.29,WNW,283,0.0,0.0,61,0.00,,---,0.14,0.00,VWS V14.00,2013-02-18 04:25:00,
2013-02-17 23:30:00,26.4,15.5,30.29,WNW,283,0.0,0.0,63,0.00,,---,0.14,0.00,VWS V14.00,2013-02-18 04:30:00,
2013-02-17 23:35:00,26.3,14.7,30.30,WNW,283,0.0,0.0,61,0.00,,---,0.14,0.00,VWS V14.00,2013-02-18 04:35:00,
2013-02-17 23:40:00,26.3,14.3,30.30,WNW,283,0.0,0.0,60,0.00,,---,0.14,0.00,VWS V14.00,2013-02-18 04:40:00,
2013-02-17 23:45:00,26.1,14.9,30.30,WNW,283,0.0,0.0,62,0.00,,---,0.14,0.00,VWS V14.00,2013-02-18 04:45:00,
2013-02-17 23:50:00,26.1,16.3,30.30,WNW,283,0.0,0.0,66,0.00,,---,0.14,0.00,VWS V14.00,2013-02-18 04:50:00,
2013-02-17 23:55:00,26.0,16.6,30.31,WNW,283,0.0,0.0,67,0.00,,---,0.14,0.00,VWS V14.00,2013-02-18 04:55:00,